Time;durP1;ratioP1;P1;durP2;ratioP2;P2;SDS_P1;SDS_P2;PMS_P1;PMS_P2;Temp;Humidity;BMP_temperature;BMP_pressure;BME280_temperature;BME280_humidity;BME280_pressure;Samples;Min_cycle;Max_cycle;Signal;HPM_P1;HPM_P2
2023/01/28 00:01:40;;;;;;;6.07;4.30;;;;;;;;;;4978558;28;20038;-73
2023/01/28 00:04:06;;;;;;;8.13;4.18;;;;;;;;;;4980704;28;20032;-72
2023/01/28 00:06:32;;;;;;;9.13;4.15;;;;;;;;;;4981085;28;20089;-73
2023/01/28 00:08:58;;;;;;;5.68;3.97;;;;;;;;;;4982181;28;20622;-73
2023/01/28 00:11:25;;;;;;;6.32;4.25;;;;;;;;;;4985944;28;20113;-73
2023/01/28 00:13:51;;;;;;;10.65;6.10;;;;;;;;;;4978585;28;20030;-73
2023/01/28 00:16:18;;;;;;;7.53;5.63;;;;;;;;;;4982043;28;20026;-73
2023/01/28 00:18:44;;;;;;;9.57;5.07;;;;;;;;;;4982431;28;20081;-73
2023/01/28 00:21:12;;;;;;;10.88;5.10;;;;;;;;;;4984710;28;20049;-73
2023/01/28 00:23:39;;;;;;;9.60;5.57;;;;;;;;;;4984547;28;20033;-73
2023/01/28 00:26:07;;;;;;;10.43;5.63;;;;;;;;;;4982026;28;20038;-73
2023/01/28 00:28:34;;;;;;;10.80;5.30;;;;;;;;;;4982078;28;20027;-73
2023/01/28 00:31:06;;;;;;;8.32;4.95;;;;;;;;;;4983110;28;20026;-72
2023/01/28 00:33:32;;;;;;;9.02;4.60;;;;;;;;;;4981028;28;20026;-73
2023/01/28 00:36:02;;;;;;;9.48;4.85;;;;;;;;;;4981809;28;20045;-73
2023/01/28 00:38:29;;;;;;;5.82;4.07;;;;;;;;;;4981245;28;20027;-73
2023/01/28 00:40:55;;;;;;;10.88;5.43;;;;;;;;;;4984889;28;20165;-73
2023/01/28 00:43:21;;;;;;;9.07;5.72;;;;;;;;;;4988249;28;20050;-72
2023/01/28 00:45:47;;;;;;;11.07;6.22;;;;;;;;;;4981841;28;20026;-72
2023/01/28 00:48:13;;;;;;;9.63;5.78;;;;;;;;;;4978086;28;20042;-72
2023/01/28 00:50:40;;;;;;;9.25;4.63;;;;;;;;;;4983508;28;20025;-73
2023/01/28 00:53:06;;;;;;;10.43;4.72;;;;;;;;;;4983367;28;20053;-72
2023/01/28 00:55:32;;;;;;;7.97;4.50;;;;;;;;;;4979194;28;20023;-72
2023/01/28 00:57:58;;;;;;;7.90;4.55;;;;;;;;;;4983403;28;20022;-73
2023/01/28 01:00:26;;;;;;;6.78;4.07;;;;;;;;;;4981248;28;20035;-73
2023/01/28 01:02:52;;;;;;;11.05;4.25;;;;;;;;;;4983193;28;20023;-72
2023/01/28 01:05:18;;;;;;;9.82;4.22;;;;;;;;;;4983146;28;20064;-73
2023/01/28 01:07:44;;;;;;;7.10;3.97;;;;;;;;;;4983003;28;20014;-72
2023/01/28 01:10:11;;;;;;;9.77;4.93;;;;;;;;;;4980263;28;20021;-72
2023/01/28 01:12:38;;;;;;;6.15;4.15;;;;;;;;;;4983452;28;20019;-73
2023/01/28 01:15:07;;;;;;;6.45;4.22;;;;;;;;;;4982934;28;20122;-73
2023/01/28 01:17:36;;;;;;;8.15;4.70;;;;;;;;;;4980648;28;20687;-72
2023/01/28 01:20:02;;;;;;;8.63;5.70;;;;;;;;;;4981105;28;20042;-73
2023/01/28 01:22:30;;;;;;;7.40;5.32;;;;;;;;;;4982368;28;20105;-73
2023/01/28 01:24:56;;;;;;;10.48;4.97;;;;;;;;;;4979890;28;20030;-73
2023/01/28 01:27:22;;;;;;;8.23;5.03;;;;;;;;;;4987065;28;20026;-73
2023/01/28 01:29:48;;;;;;;11.27;4.75;;;;;;;;;;4978624;28;20065;-73
2023/01/28 01:32:15;;;;;;;7.47;4.47;;;;;;;;;;4983224;28;20033;-73
2023/01/28 01:34:41;;;;;;;9.30;4.85;;;;;;;;;;4983166;28;20438;-73
2023/01/28 01:37:09;;;;;;;7.95;4.63;;;;;;;;;;4979226;28;20030;-73
2023/01/28 01:39:35;;;;;;;7.00;4.00;;;;;;;;;;4977962;28;20026;-73
2023/01/28 01:42:02;;;;;;;7.00;4.25;;;;;;;;;;4976367;28;20034;-73
2023/01/28 01:44:47;;;;;;;6.05;3.83;;;;;;;;;;4976610;28;20443;-72
2023/01/28 01:47:13;;;;;;;6.07;3.90;;;;;;;;;;4969286;28;20037;-73
2023/01/28 01:49:40;;;;;;;5.30;3.53;;;;;;;;;;4976291;28;20022;-73
2023/01/28 01:52:08;;;;;;;6.45;3.47;;;;;;;;;;4975517;28;20030;-73
2023/01/28 01:54:37;;;;;;;7.18;3.78;;;;;;;;;;4976164;28;20081;-73
2023/01/28 01:57:04;;;;;;;4.90;3.42;;;;;;;;;;4976036;28;20026;-73
2023/01/28 01:59:32;;;;;;;7.13;3.40;;;;;;;;;;4978673;28;20036;-73
2023/01/28 02:02:00;;;;;;;6.00;3.40;;;;;;;;;;4974586;28;20026;-73
2023/01/28 02:04:31;;;;;;;8.23;4.15;;;;;;;;;;4980292;28;20026;-73
2023/01/28 02:06:59;;;;;;;7.50;3.15;;;;;;;;;;4974821;28;20049;-73
2023/01/28 02:09:28;;;;;;;11.23;3.47;;;;;;;;;;4973720;28;20945;-73
2023/01/28 02:12:20;;;;;;;5.40;3.50;;;;;;;;;;4975928;28;20656;-74
2023/01/28 02:14:46;;;;;;;;;;;;;;;;;;4975536;28;20118;-74
2023/01/28 02:17:14;;;;;;;5.35;3.40;;;;;;;;;;4976564;28;20024;-73
2023/01/28 02:19:43;;;;;;;4.97;3.22;;;;;;;;;;4973690;28;20034;-73
2023/01/28 02:22:22;;;;;;;5.97;3.80;;;;;;;;;;4978809;28;20034;-73
2023/01/28 02:24:53;;;;;;;6.13;3.40;;;;;;;;;;4975636;28;20034;-73
2023/01/28 02:27:28;;;;;;;6.10;3.63;;;;;;;;;;4980029;28;20027;-73
2023/01/28 02:29:58;;;;;;;6.45;3.95;;;;;;;;;;4969223;28;20038;-73
2023/01/28 02:32:27;;;;;;;8.45;3.30;;;;;;;;;;4976084;28;20026;-73
2023/01/28 02:34:54;;;;;;;5.38;3.50;;;;;;;;;;4975122;28;20077;-73
2023/01/28 02:37:22;;;;;;;5.43;3.40;;;;;;;;;;4977904;28;20084;-72
2023/01/28 02:39:51;;;;;;;6.97;3.60;;;;;;;;;;4977310;28;20081;-73
2023/01/28 02:42:19;;;;;;;6.55;3.97;;;;;;;;;;4975300;28;20477;-73
2023/01/28 02:44:45;;;;;;;7.30;4.47;;;;;;;;;;4977240;28;20026;-72
2023/01/28 02:49:59;;;;;;;6.93;3.80;;;;;;;;;;4976883;28;20050;-73
2023/01/28 02:55:28;;;;;;;7.53;3.90;;;;;;;;;;4978684;28;20119;-73
2023/01/28 02:57:54;;;;;;;10.43;4.03;;;;;;;;;;4975382;28;20100;-73
2023/01/28 03:00:26;;;;;;;5.28;2.83;;;;;;;;;;4977182;28;20041;-73
2023/01/28 03:02:55;;;;;;;5.95;3.10;;;;;;;;;;4972272;28;20041;-73
2023/01/28 03:05:25;;;;;;;5.40;3.65;;;;;;;;;;4977877;28;20762;-73
2023/01/28 03:07:51;;;;;;;13.55;3.15;;;;;;;;;;4975665;28;20113;-72
2023/01/28 03:10:19;;;;;;;5.78;2.90;;;;;;;;;;4979735;28;20019;-73
2023/01/28 03:38:17;;;;;;;6.00;3.17;;;;;;;;;;4981363;28;20030;-73
2023/01/28 03:40:55;;;;;;;4.68;3.33;;;;;;;;;;4977444;28;20037;-73
2023/01/28 03:43:22;;;;;;;6.28;4.05;;;;;;;;;;4979182;28;20018;-72
2023/01/28 03:45:51;;;;;;;4.85;3.08;;;;;;;;;;4980448;28;20034;-73
2023/01/28 03:48:18;;;;;;;8.13;3.70;;;;;;;;;;4979174;28;20502;-75
2023/01/28 03:50:44;;;;;;;7.03;3.38;;;;;;;;;;4979913;28;20058;-73
2023/01/28 03:53:11;;;;;;;6.55;3.10;;;;;;;;;;4978217;28;20023;-75
2023/01/28 03:55:37;;;;;;;5.18;3.03;;;;;;;;;;4980873;28;20034;-74
2023/01/28 03:58:04;;;;;;;4.05;2.67;;;;;;;;;;4979630;28;20116;-74
2023/01/28 04:00:36;;;;;;;4.05;2.63;;;;;;;;;;4981461;28;20042;-75
2023/01/28 04:03:14;;;;;;;3.78;2.38;;;;;;;;;;4974443;28;20022;-75
2023/01/28 04:05:42;;;;;;;4.60;2.85;;;;;;;;;;4979822;28;20093;-74
2023/01/28 04:08:08;;;;;;;5.68;2.33;;;;;;;;;;4978000;28;20391;-74
2023/01/28 04:10:34;;;;;;;4.18;2.22;;;;;;;;;;4978094;28;20069;-74
2023/01/28 04:13:00;;;;;;;4.03;2.55;;;;;;;;;;4980155;28;20037;-74
2023/01/28 04:15:26;;;;;;;4.95;3.13;;;;;;;;;;4978685;28;20023;-75
2023/01/28 04:17:52;;;;;;;5.22;2.45;;;;;;;;;;4975715;28;20087;-74
2023/01/28 04:20:19;;;;;;;3.58;2.28;;;;;;;;;;4974264;28;20034;-75
2023/01/28 04:22:45;;;;;;;5.15;2.15;;;;;;;;;;4972545;28;20014;-74
2023/01/28 04:25:11;;;;;;;3.85;2.42;;;;;;;;;;4979074;28;20029;-74
2023/01/28 04:27:37;;;;;;;3.88;2.15;;;;;;;;;;4971798;28;20026;-74
2023/01/28 04:30:03;;;;;;;4.20;2.60;;;;;;;;;;4975722;28;20041;-74
2023/01/28 04:32:29;;;;;;;3.55;2.25;;;;;;;;;;4978419;28;20022;-75
2023/01/28 04:34:56;;;;;;;4.30;2.30;;;;;;;;;;4977443;28;20033;-74
2023/01/28 04:37:22;;;;;;;3.40;2.22;;;;;;;;;;4974153;28;20083;-74
2023/01/28 04:39:48;;;;;;;3.95;2.80;;;;;;;;;;4974653;28;20121;-74
2023/01/28 04:42:14;;;;;;;4.30;2.65;;;;;;;;;;4974213;28;20031;-74
2023/01/28 04:44:40;;;;;;;4.75;2.70;;;;;;;;;;4975557;28;20022;-73
2023/01/28 04:47:06;;;;;;;4.18;2.80;;;;;;;;;;4975681;28;20031;-73
2023/01/28 04:49:33;;;;;;;5.07;2.40;;;;;;;;;;4976723;28;20023;-73
2023/01/28 04:51:59;;;;;;;4.30;2.80;;;;;;;;;;4974889;28;20033;-73
2023/01/28 04:54:25;;;;;;;4.07;2.55;;;;;;;;;;4972086;28;20037;-73
2023/01/28 04:56:51;;;;;;;4.75;2.65;;;;;;;;;;4974073;28;20105;-72
2023/01/28 04:59:18;;;;;;;8.45;2.83;;;;;;;;;;4976159;28;20031;-73
2023/01/28 05:01:45;;;;;;;4.43;2.90;;;;;;;;;;4973028;28;20613;-73
2023/01/28 05:04:11;;;;;;;3.90;2.25;;;;;;;;;;4977600;28;20036;-73
2023/01/28 05:06:37;;;;;;;5.13;3.67;;;;;;;;;;4977611;28;20050;-73
2023/01/28 05:09:04;;;;;;;5.10;3.22;;;;;;;;;;4975276;28;20027;-73
2023/01/28 05:11:30;;;;;;;7.72;3.10;;;;;;;;;;4978026;28;20411;-73
2023/01/28 05:13:56;;;;;;;4.55;2.88;;;;;;;;;;4978902;28;20026;-73
2023/01/28 05:16:22;;;;;;;7.60;3.88;;;;;;;;;;4977371;28;20399;-73
2023/01/28 05:18:50;;;;;;;6.85;3.30;;;;;;;;;;4974271;28;20491;-73
2023/01/28 05:21:16;;;;;;;6.03;3.10;;;;;;;;;;4977922;28;20141;-73
2023/01/28 05:23:42;;;;;;;6.43;2.90;;;;;;;;;;4975419;28;20026;-73
2023/01/28 05:26:09;;;;;;;4.20;2.92;;;;;;;;;;4971808;28;20035;-73
2023/01/28 05:28:35;;;;;;;4.07;2.55;;;;;;;;;;4978927;28;20053;-73
2023/01/28 05:31:05;;;;;;;4.45;3.03;;;;;;;;;;4972008;28;20034;-73
2023/01/28 05:33:31;;;;;;;4.35;2.70;;;;;;;;;;4974248;28;20077;-74
2023/01/28 05:35:58;;;;;;;5.35;2.70;;;;;;;;;;4972029;28;20345;-73
2023/01/28 05:38:24;;;;;;;4.45;2.95;;;;;;;;;;4977570;28;20027;-72
2023/01/28 05:40:50;;;;;;;4.47;3.00;;;;;;;;;;4973627;28;20041;-72
2023/01/28 05:43:16;;;;;;;4.50;3.15;;;;;;;;;;4972026;28;20027;-73
2023/01/28 05:45:42;;;;;;;4.07;2.95;;;;;;;;;;4976472;28;20030;-74
2023/01/28 05:48:09;;;;;;;7.30;3.28;;;;;;;;;;4974659;28;20030;-73
2023/01/28 05:50:35;;;;;;;6.82;3.40;;;;;;;;;;4973139;28;20022;-73
2023/01/28 05:53:01;;;;;;;4.18;2.83;;;;;;;;;;4973169;28;20022;-74
2023/01/28 05:55:27;;;;;;;7.55;3.10;;;;;;;;;;4977091;28;20026;-73
2023/01/28 05:57:53;;;;;;;5.30;3.25;;;;;;;;;;4972341;28;20036;-73
2023/01/28 06:00:19;;;;;;;6.95;3.95;;;;;;;;;;4971945;28;20088;-72
2023/01/28 06:02:45;;;;;;;9.77;3.78;;;;;;;;;;4971765;28;20492;-73
2023/01/28 06:05:12;;;;;;;4.50;2.72;;;;;;;;;;4969047;28;20043;-72
2023/01/28 06:07:38;;;;;;;4.75;2.70;;;;;;;;;;4975118;28;20759;-73
2023/01/28 06:10:04;;;;;;;5.55;3.13;;;;;;;;;;4972807;28;20396;-73
2023/01/28 06:12:30;;;;;;;4.03;2.88;;;;;;;;;;4971946;28;20041;-73
2023/01/28 06:14:56;;;;;;;5.78;3.00;;;;;;;;;;4973638;28;20037;-73
2023/01/28 06:17:23;;;;;;;4.72;3.00;;;;;;;;;;4972224;28;20125;-73
2023/01/28 06:19:49;;;;;;;10.50;3.20;;;;;;;;;;4972330;28;20014;-73
2023/01/28 06:22:15;;;;;;;8.02;3.20;;;;;;;;;;4972271;28;20125;-74
2023/01/28 06:24:41;;;;;;;5.50;3.00;;;;;;;;;;4969683;28;20026;-73
2023/01/28 06:27:07;;;;;;;8.95;2.67;;;;;;;;;;4971085;28;20038;-73
2023/01/28 06:29:34;;;;;;;4.07;2.72;;;;;;;;;;4973468;28;20133;-73
2023/01/28 06:32:00;;;;;;;4.00;2.65;;;;;;;;;;4977485;28;20379;-73
2023/01/28 06:34:26;;;;;;;7.07;2.72;;;;;;;;;;4973642;28;20088;-73
2023/01/28 06:36:53;;;;;;;4.38;2.70;;;;;;;;;;4974976;28;20032;-74
2023/01/28 06:39:22;;;;;;;5.47;2.72;;;;;;;;;;4972948;28;20041;-74
2023/01/28 06:41:49;;;;;;;4.45;2.65;;;;;;;;;;4973764;28;20045;-73
2023/01/28 06:44:15;;;;;;;4.75;2.60;;;;;;;;;;4976746;28;20038;-73
2023/01/28 06:46:41;;;;;;;4.20;2.55;;;;;;;;;;4971184;28;20117;-73
2023/01/28 06:49:08;;;;;;;9.02;3.22;;;;;;;;;;4973061;28;20094;-73
2023/01/28 06:51:34;;;;;;;5.75;2.85;;;;;;;;;;4970303;28;20618;-73
2023/01/28 06:54:01;;;;;;;4.35;3.03;;;;;;;;;;4975690;28;20029;-73
2023/01/28 06:56:27;;;;;;;5.10;2.97;;;;;;;;;;4976136;28;20086;-74
2023/01/28 06:58:53;;;;;;;5.05;2.88;;;;;;;;;;4976395;28;20030;-73
2023/01/28 07:01:19;;;;;;;4.18;2.40;;;;;;;;;;4969768;28;20053;-73
2023/01/28 07:03:45;;;;;;;7.20;2.85;;;;;;;;;;4974063;28;20022;-73
2023/01/28 07:06:11;;;;;;;5.53;2.88;;;;;;;;;;4975543;28;20050;-73
2023/01/28 07:08:38;;;;;;;4.80;3.08;;;;;;;;;;4970077;28;20023;-73
2023/01/28 07:11:04;;;;;;;4.75;2.92;;;;;;;;;;4978444;28;20058;-74
2023/01/28 07:13:31;;;;;;;5.63;2.95;;;;;;;;;;4976116;28;20027;-73
2023/01/28 07:15:57;;;;;;;4.60;2.58;;;;;;;;;;4979378;28;20125;-73
2023/01/28 07:18:23;;;;;;;7.13;2.85;;;;;;;;;;4976423;28;20029;-73
2023/01/28 07:20:49;;;;;;;4.60;2.90;;;;;;;;;;4977460;28;20030;-73
2023/01/28 07:23:15;;;;;;;5.55;3.08;;;;;;;;;;4975578;28;20027;-73
2023/01/28 07:25:41;;;;;;;6.28;3.40;;;;;;;;;;4974365;28;20029;-73
2023/01/28 07:28:08;;;;;;;5.30;3.47;;;;;;;;;;4978234;28;20086;-73
2023/01/28 07:30:34;;;;;;;4.72;2.75;;;;;;;;;;4974839;28;20054;-73
2023/01/28 07:33:00;;;;;;;4.88;3.08;;;;;;;;;;4975117;28;20034;-74
2023/01/28 07:35:27;;;;;;;6.60;3.33;;;;;;;;;;4975790;28;20037;-74
2023/01/28 07:37:53;;;;;;;5.43;3.20;;;;;;;;;;4975294;28;20060;-74
2023/01/28 07:40:20;;;;;;;5.65;3.13;;;;;;;;;;4974209;28;20042;-73
2023/01/28 07:42:46;;;;;;;6.97;3.38;;;;;;;;;;4979032;28;20151;-73
2023/01/28 07:45:12;;;;;;;4.72;3.20;;;;;;;;;;4977574;28;20384;-73
2023/01/28 07:47:38;;;;;;;5.65;3.83;;;;;;;;;;4978556;28;20027;-73
2023/01/28 07:50:04;;;;;;;5.53;3.60;;;;;;;;;;4974272;28;20026;-73
2023/01/28 07:52:37;;;;;;;5.35;3.30;;;;;;;;;;4977368;28;20158;-73
2023/01/28 07:55:03;;;;;;;;;;;;;;;;;;4979919;28;20052;-73
2023/01/28 07:57:29;;;;;;;5.88;3.22;;;;;;;;;;4977504;28;20445;-73
2023/01/28 07:59:55;;;;;;;7.25;4.35;;;;;;;;;;4978330;28;20037;-73
2023/01/28 08:02:21;;;;;;;6.30;3.63;;;;;;;;;;4979791;28;20034;-73
2023/01/28 08:04:47;;;;;;;7.82;4.20;;;;;;;;;;4977740;28;20053;-74
2023/01/28 08:07:13;;;;;;;9.40;4.72;;;;;;;;;;4974355;28;20468;-74
2023/01/28 08:09:39;;;;;;;6.45;4.38;;;;;;;;;;4980670;28;20585;-73
2023/01/28 08:12:06;;;;;;;7.13;4.75;;;;;;;;;;4979718;28;20030;-73
2023/01/28 08:14:32;;;;;;;6.63;4.50;;;;;;;;;;4979044;28;20048;-73
2023/01/28 08:16:58;;;;;;;7.60;4.35;;;;;;;;;;4974533;28;20023;-73
2023/01/28 08:19:24;;;;;;;8.57;4.35;;;;;;;;;;4976384;28;20018;-74
2023/01/28 08:21:50;;;;;;;5.55;3.92;;;;;;;;;;4974652;28;20035;-73
2023/01/28 08:24:17;;;;;;;5.95;3.78;;;;;;;;;;4973997;28;20605;-73
2023/01/28 08:26:43;;;;;;;6.45;4.30;;;;;;;;;;4977328;28;20512;-73
2023/01/28 08:29:09;;;;;;;6.03;3.85;;;;;;;;;;4975980;28;20840;-73
2023/01/28 08:31:36;;;;;;;4.82;3.30;;;;;;;;;;4978461;28;20732;-73
2023/01/28 08:34:02;;;;;;;4.90;3.15;;;;;;;;;;4976687;28;20026;-73
2023/01/28 08:36:28;;;;;;;4.47;3.08;;;;;;;;;;4975540;28;20783;-73
2023/01/28 08:38:54;;;;;;;4.15;2.90;;;;;;;;;;4973273;28;20667;-84
2023/01/28 08:41:21;;;;;;;3.60;2.60;;;;;;;;;;4977481;28;20534;-75
2023/01/28 08:43:48;;;;;;;5.00;2.47;;;;;;;;;;4975544;28;20030;-74
2023/01/28 08:46:14;;;;;;;5.07;3.00;;;;;;;;;;4979353;28;20241;-74
2023/01/28 08:48:40;;;;;;;7.68;3.08;;;;;;;;;;4976692;28;20507;-74
2023/01/28 08:51:06;;;;;;;5.45;3.58;;;;;;;;;;4971497;28;20069;-74
2023/01/28 08:53:32;;;;;;;5.63;3.92;;;;;;;;;;4975634;28;20022;-74
2023/01/28 08:55:59;;;;;;;5.25;3.58;;;;;;;;;;4977478;28;20030;-74
2023/01/28 08:58:25;;;;;;;5.50;3.60;;;;;;;;;;4978462;28;20162;-74
2023/01/28 09:00:51;;;;;;;5.25;3.78;;;;;;;;;;4977720;28;20105;-74
2023/01/28 09:03:18;;;;;;;4.38;2.75;;;;;;;;;;4976085;28;20045;-75
2023/01/28 09:05:44;;;;;;;5.95;2.92;;;;;;;;;;4974120;28;20175;-73
2023/01/28 09:08:11;;;;;;;4.63;2.58;;;;;;;;;;4973534;28;20038;-74
2023/01/28 09:10:38;;;;;;;4.30;2.75;;;;;;;;;;4975840;28;20181;-74
2023/01/28 09:13:12;;;;;;;3.38;2.63;;;;;;;;;;4975274;28;20864;-75
2023/01/28 09:15:39;;;;;;;5.00;2.75;;;;;;;;;;4972665;28;20037;-74
2023/01/28 09:18:05;;;;;;;7.07;2.97;;;;;;;;;;4973654;28;20026;-74
2023/01/28 09:20:32;;;;;;;3.40;2.40;;;;;;;;;;4976819;28;20100;-74
2023/01/28 09:22:58;;;;;;;4.53;2.85;;;;;;;;;;4975256;28;20030;-74
2023/01/28 09:25:24;;;;;;;4.82;3.30;;;;;;;;;;4979226;28;20030;-73
2023/01/28 09:27:50;;;;;;;4.95;2.90;;;;;;;;;;4979483;28;20018;-73
2023/01/28 09:30:16;;;;;;;5.75;3.30;;;;;;;;;;4978514;28;20018;-72
2023/01/28 09:32:43;;;;;;;7.53;3.00;;;;;;;;;;4967335;28;20815;-72
2023/01/28 09:35:09;;;;;;;6.40;3.70;;;;;;;;;;4971725;28;20613;-72
2023/01/28 09:37:35;;;;;;;10.50;4.63;;;;;;;;;;4974183;28;20169;-72
2023/01/28 09:40:02;;;;;;;6.93;3.30;;;;;;;;;;4974106;28;20035;-72
2023/01/28 09:42:46;;;;;;;4.88;3.50;;;;;;;;;;4978273;28;20030;-72
2023/01/28 09:45:14;;;;;;;4.95;3.13;;;;;;;;;;4976594;28;20031;-72
2023/01/28 09:47:55;;;;;;;6.20;3.38;;;;;;;;;;4974776;28;20029;-72
2023/01/28 09:50:30;;;;;;;5.05;2.78;;;;;;;;;;4974819;28;20555;-72
2023/01/28 09:52:59;;;;;;;4.57;2.85;;;;;;;;;;4971213;28;20035;-72
2023/01/28 09:55:31;;;;;;;4.00;2.40;;;;;;;;;;4972020;28;20993;-72
2023/01/28 09:57:58;;;;;;;4.43;2.83;;;;;;;;;;4973699;28;20577;-72
2023/01/28 10:00:28;;;;;;;3.85;2.20;;;;;;;;;;4974280;28;20023;-72
2023/01/28 10:03:00;;;;;;;5.93;2.15;;;;;;;;;;4972175;28;20022;-72
2023/01/28 10:05:26;;;;;;;3.85;1.80;;;;;;;;;;4976800;28;20050;-72
2023/01/28 10:08:18;;;;;;;3.00;1.90;;;;;;;;;;4970260;28;20030;-72
2023/01/28 10:10:44;;;;;;;4.03;2.20;;;;;;;;;;4969405;28;20623;-72
2023/01/28 10:13:19;;;;;;;3.50;2.53;;;;;;;;;;4975800;28;20034;-73
2023/01/28 10:16:04;;;;;;;4.43;3.13;;;;;;;;;;4965226;28;20038;-73
2023/01/28 10:18:41;;;;;;;3.50;2.42;;;;;;;;;;4973577;28;20045;-72
2023/01/28 10:21:13;;;;;;;3.42;2.50;;;;;;;;;;4975328;28;20045;-73
2023/01/28 10:23:39;;;;;;;3.65;2.40;;;;;;;;;;4971509;28;20028;-72
2023/01/28 10:26:09;;;;;;;5.68;2.70;;;;;;;;;;4975112;28;20037;-73
2023/01/28 10:28:35;;;;;;;2.83;1.85;;;;;;;;;;4975707;28;20032;-72
2023/01/28 10:31:01;;;;;;;3.90;2.17;;;;;;;;;;4971546;28;20784;-72
2023/01/28 10:33:27;;;;;;;2.63;1.58;;;;;;;;;;4975883;28;20018;-72
2023/01/28 10:35:54;;;;;;;2.65;1.70;;;;;;;;;;4965242;28;20035;-72
2023/01/28 10:38:22;;;;;;;3.63;2.20;;;;;;;;;;4975899;28;20026;-72
2023/01/28 10:40:48;;;;;;;2.55;2.00;;;;;;;;;;4973933;28;20026;-73
2023/01/28 10:43:16;;;;;;;2.63;2.03;;;;;;;;;;4973042;28;20026;-72
2023/01/28 10:45:48;;;;;;;3.63;2.00;;;;;;;;;;4972289;28;20624;-73
2023/01/28 10:48:22;;;;;;;2.50;1.90;;;;;;;;;;4971389;28;20026;-73
2023/01/28 10:50:51;;;;;;;3.47;2.28;;;;;;;;;;4971453;28;20487;-73
2023/01/28 10:53:18;;;;;;;2.65;2.03;;;;;;;;;;4975056;28;20479;-73
2023/01/28 10:55:44;;;;;;;4.20;2.55;;;;;;;;;;4976090;28;20029;-72
2023/01/28 10:58:17;;;;;;;3.42;2.67;;;;;;;;;;4972121;28;20030;-73
2023/01/28 11:00:43;;;;;;;4.32;2.65;;;;;;;;;;4974326;28;20080;-73
2023/01/28 11:03:17;;;;;;;4.20;2.05;;;;;;;;;;4974838;28;20031;-72
2023/01/28 11:05:50;;;;;;;4.38;2.33;;;;;;;;;;4973561;28;20046;-72
2023/01/28 11:08:17;;;;;;;3.63;2.72;;;;;;;;;;4974874;28;20089;-72
2023/01/28 11:10:44;;;;;;;6.50;4.63;;;;;;;;;;4970927;28;20022;-72
2023/01/28 11:13:26;;;;;;;7.22;3.78;;;;;;;;;;4976194;28;20106;-73
2023/01/28 11:16:22;;;;;;;6.50;4.38;;;;;;;;;;4970803;28;20357;-72
2023/01/28 11:18:48;;;;;;;4.85;2.92;;;;;;;;;;4961907;28;20027;-72
2023/01/28 11:21:17;;;;;;;5.78;3.80;;;;;;;;;;4977568;28;20104;-72
2023/01/28 11:24:00;;;;;;;4.20;3.00;;;;;;;;;;4974973;28;20173;-73
2023/01/28 11:26:29;;;;;;;5.65;2.88;;;;;;;;;;4976908;28;20117;-73
2023/01/28 11:28:55;;;;;;;5.68;2.83;;;;;;;;;;4973780;28;20035;-72
2023/01/28 11:31:23;;;;;;;3.88;3.08;;;;;;;;;;4975143;28;20565;-73
2023/01/28 11:33:52;;;;;;;6.63;3.40;;;;;;;;;;4975548;28;20030;-72
2023/01/28 11:36:18;;;;;;;4.65;3.70;;;;;;;;;;4972423;28;20031;-73
2023/01/28 11:38:48;;;;;;;4.38;3.25;;;;;;;;;;4976952;28;20022;-72
2023/01/28 11:41:15;;;;;;;5.28;3.35;;;;;;;;;;4971778;28;20173;-72
2023/01/28 11:43:44;;;;;;;4.50;3.13;;;;;;;;;;4972489;28;20058;-73
2023/01/28 11:46:25;;;;;;;4.30;3.13;;;;;;;;;;4970600;28;20015;-72
2023/01/28 11:49:10;;;;;;;6.75;2.97;;;;;;;;;;4974600;28;20022;-73
2023/01/28 11:51:48;;;;;;;3.78;2.85;;;;;;;;;;4971709;28;20486;-72
2023/01/28 11:54:23;;;;;;;6.10;3.20;;;;;;;;;;4969980;28;20050;-72
2023/01/28 11:56:50;;;;;;;4.47;2.50;;;;;;;;;;4974072;28;20018;-72
2023/01/28 11:59:17;;;;;;;4.13;2.60;;;;;;;;;;4977098;28;20033;-73
2023/01/28 12:01:49;;;;;;;3.95;2.75;;;;;;;;;;4978250;28;20046;-73
2023/01/28 12:04:16;;;;;;;4.80;2.95;;;;;;;;;;4979786;28;20050;-72
2023/01/28 12:06:48;;;;;;;4.93;3.08;;;;;;;;;;4972238;28;20129;-73
2023/01/28 12:09:14;;;;;;;6.28;3.88;;;;;;;;;;4973809;28;20072;-72
2023/01/28 12:14:37;;;;;;;6.80;5.05;;;;;;;;;;4975300;28;20727;-73
2023/01/28 12:17:06;;;;;;;6.43;3.30;;;;;;;;;;4977692;28;20027;-72
2023/01/28 12:19:43;;;;;;;4.45;3.17;;;;;;;;;;4974944;28;20045;-73
2023/01/28 12:22:24;;;;;;;4.93;3.22;;;;;;;;;;4974396;28;20108;-73
2023/01/28 12:25:03;;;;;;;4.50;3.08;;;;;;;;;;4968880;28;20373;-73
2023/01/28 12:27:48;;;;;;;3.67;3.00;;;;;;;;;;4971300;28;20117;-73
2023/01/28 12:30:18;;;;;;;3.75;2.60;;;;;;;;;;4971636;28;20018;-73
2023/01/28 12:32:50;;;;;;;4.03;2.40;;;;;;;;;;4968290;28;20022;-72
2023/01/28 12:35:16;;;;;;;3.50;2.25;;;;;;;;;;4971688;28;20347;-73
2023/01/28 12:37:59;;;;;;;4.45;2.50;;;;;;;;;;4975364;28;20026;-72
2023/01/28 12:40:44;;;;;;;6.28;3.20;;;;;;;;;;4971332;28;20022;-73
2023/01/28 12:43:14;;;;;;;5.40;2.92;;;;;;;;;;4968681;28;20034;-73
2023/01/28 12:45:44;;;;;;;4.03;2.75;;;;;;;;;;4965972;28;20026;-73
2023/01/28 12:48:13;;;;;;;5.22;2.45;;;;;;;;;;4971174;28;20019;-73
2023/01/28 12:50:46;;;;;;;4.07;2.72;;;;;;;;;;4974375;28;20045;-73
2023/01/28 12:53:30;;;;;;;3.97;2.90;;;;;;;;;;4976265;28;20034;-73
2023/01/28 12:56:04;;;;;;;6.15;2.97;;;;;;;;;;4972928;28;20141;-73
2023/01/28 12:58:42;;;;;;;2.97;2.40;;;;;;;;;;4974506;28;20129;-74
2023/01/28 13:01:10;;;;;;;7.28;3.10;;;;;;;;;;4971714;28;20537;-73
2023/01/28 13:03:43;;;;;;;3.50;2.35;;;;;;;;;;4975756;28;20021;-73
2023/01/28 13:06:15;;;;;;;4.47;2.65;;;;;;;;;;4978035;28;20582;-74
2023/01/28 13:08:41;;;;;;;3.45;2.60;;;;;;;;;;4976919;28;20035;-73
2023/01/28 13:11:11;;;;;;;5.20;2.95;;;;;;;;;;4974553;28;20038;-73
2023/01/28 13:13:41;;;;;;;4.95;3.65;;;;;;;;;;4977381;28;20044;-73
2023/01/28 13:16:08;;;;;;;6.82;3.78;;;;;;;;;;4977346;28;20022;-73
2023/01/28 13:18:41;;;;;;;4.40;2.90;;;;;;;;;;4976589;28;20081;-72
2023/01/28 13:21:25;;;;;;;4.85;2.50;;;;;;;;;;4976450;28;20413;-73
2023/01/28 13:24:03;;;;;;;6.45;2.55;;;;;;;;;;4973062;28;20022;-74
2023/01/28 13:26:50;;;;;;;5.78;2.72;;;;;;;;;;4978938;28;20029;-74
2023/01/28 13:29:25;;;;;;;3.00;2.10;;;;;;;;;;4964344;28;20049;-74
2023/01/28 13:31:52;;;;;;;3.25;1.88;;;;;;;;;;4973450;28;20039;-73
2023/01/28 13:34:35;;;;;;;3.58;2.47;;;;;;;;;;4978003;28;20034;-73
2023/01/28 13:37:01;;;;;;;;;;;;;;;;;;4973591;28;20594;-73
2023/01/28 13:39:27;;;;;;;3.40;2.55;;;;;;;;;;4976421;28;19949;-73
2023/01/28 13:41:55;;;;;;;6.68;3.05;;;;;;;;;;4970659;28;20077;-72
2023/01/28 13:44:29;;;;;;;8.50;3.83;;;;;;;;;;4972963;28;20030;-72
2023/01/28 13:46:57;;;;;;;14.30;5.57;;;;;;;;;;4976367;28;20034;-73
2023/01/28 13:49:34;;;;;;;8.45;3.15;;;;;;;;;;4973131;28;20026;-73
2023/01/28 13:52:19;;;;;;;5.20;2.80;;;;;;;;;;4965991;28;20030;-73
2023/01/28 13:54:51;;;;;;;5.45;3.22;;;;;;;;;;4974992;28;20768;-73
2023/01/28 13:57:31;;;;;;;19.13;5.15;;;;;;;;;;4974623;28;20522;-73
2023/01/28 14:00:17;;;;;;;4.75;3.50;;;;;;;;;;4970886;28;20049;-73
2023/01/28 14:03:02;;;;;;;5.00;3.00;;;;;;;;;;4975942;28;20026;-73
2023/01/28 14:05:47;;;;;;;4.95;2.95;;;;;;;;;;4975515;28;20061;-73
2023/01/28 14:08:31;;;;;;;4.90;3.00;;;;;;;;;;4973785;28;20263;-72
2023/01/28 14:11:01;;;;;;;4.90;3.17;;;;;;;;;;4971787;28;20140;-73
2023/01/28 14:13:43;;;;;;;6.50;4.10;;;;;;;;;;4974641;28;20030;-73
2023/01/28 14:16:21;;;;;;;7.30;4.53;;;;;;;;;;4976474;28;20034;-73
2023/01/28 14:18:48;;;;;;;6.78;4.22;;;;;;;;;;4974864;28;20125;-73
2023/01/28 14:21:21;;;;;;;5.03;3.58;;;;;;;;;;4973655;28;20406;-74
2023/01/28 14:23:54;;;;;;;4.75;3.25;;;;;;;;;;4976444;28;20029;-74
2023/01/28 14:26:31;;;;;;;5.07;2.58;;;;;;;;;;4973639;28;20105;-74
2023/01/28 14:29:27;;;;;;;5.32;3.38;;;;;;;;;;4973352;28;20054;-73
2023/01/28 14:31:54;;;;;;;5.20;2.60;;;;;;;;;;4959895;28;20038;-73
2023/01/28 14:34:23;;;;;;;4.65;2.83;;;;;;;;;;4974120;28;20092;-73
2023/01/28 14:36:50;;;;;;;5.07;2.60;;;;;;;;;;4976689;28;20041;-73
2023/01/28 14:39:18;;;;;;;4.47;2.75;;;;;;;;;;4976331;28;20098;-73
2023/01/28 14:41:46;;;;;;;6.18;3.58;;;;;;;;;;4975880;28;20036;-73
2023/01/28 14:44:20;;;;;;;5.50;3.15;;;;;;;;;;4972678;28;20030;-73
2023/01/28 14:46:54;;;;;;;5.63;2.95;;;;;;;;;;4974140;28;20034;-73
2023/01/28 14:49:50;;;;;;;6.22;2.78;;;;;;;;;;4974506;28;20061;-73
2023/01/28 14:52:24;;;;;;;6.28;3.10;;;;;;;;;;4959982;28;20112;-74
2023/01/28 14:54:59;;;;;;;9.20;3.15;;;;;;;;;;4971372;28;20026;-73
2023/01/28 14:57:41;;;;;;;4.85;2.90;;;;;;;;;;4971361;28;20038;-73
2023/01/28 15:00:17;;;;;;;4.85;2.85;;;;;;;;;;4974738;28;20030;-74
2023/01/28 15:02:43;;;;;;;4.05;2.78;;;;;;;;;;4976852;28;20030;-73
2023/01/28 15:05:11;;;;;;;4.95;2.83;;;;;;;;;;4973327;28;20133;-73
2023/01/28 15:07:37;;;;;;;4.22;2.65;;;;;;;;;;4970879;28;20104;-73
2023/01/28 15:10:05;;;;;;;5.22;2.78;;;;;;;;;;4976987;28;20026;-73
2023/01/28 15:12:37;;;;;;;4.75;3.10;;;;;;;;;;4969949;28;20027;-73
2023/01/28 15:15:22;;;;;;;6.30;2.58;;;;;;;;;;4968068;28;20052;-73
2023/01/28 15:17:48;;;;;;;5.95;3.10;;;;;;;;;;4976469;28;20037;-73
2023/01/28 15:20:17;;;;;;;5.75;2.80;;;;;;;;;;4977751;28;20022;-74
2023/01/28 15:22:44;;;;;;;7.60;3.13;;;;;;;;;;4975810;28;20038;-73
2023/01/28 15:25:21;;;;;;;7.35;3.33;;;;;;;;;;4974108;28;20679;-73
2023/01/28 15:27:49;;;;;;;6.32;3.28;;;;;;;;;;4977242;28;20394;-73
2023/01/28 15:30:19;;;;;;;3.78;2.70;;;;;;;;;;4977221;28;20030;-74